Time;durP1;ratioP1;P1;durP2;ratioP2;P2;SDS_P1;SDS_P2;PMS_P1;PMS_P2;Temp;Humidity;BMP_temperature;BMP_pressure;BME280_temperature;BME280_humidity;BME280_pressure;Samples;Min_cycle;Max_cycle;Signal;HPM_P1;HPM_P2
2023/10/25 00:02:23;;;;;;;1.30;1.20;;;21.80;44.50;;;;;;4970443;28;20224;-86
2023/10/25 00:04:55;;;;;;;1.40;1.30;;;21.80;44.40;;;;;;4971788;28;20236;-85
2023/10/25 00:07:21;;;;;;;1.60;1.50;;;21.80;44.50;;;;;;4975435;28;20227;-87
2023/10/25 00:09:46;;;;;;;1.30;1.20;;;21.80;44.50;;;;;;4957016;28;20458;-84
2023/10/25 00:12:12;;;;;;;1.13;1.07;;;21.80;44.50;;;;;;4973430;28;20252;-84
2023/10/25 00:14:38;;;;;;;1.57;1.40;;;21.80;44.50;;;;;;4969618;28;20993;-85
2023/10/25 00:17:03;;;;;;;1.30;1.20;;;21.80;44.50;;;;;;4972823;28;20300;-86
2023/10/25 00:19:29;;;;;;;1.40;1.30;;;21.80;44.50;;;;;;4955862;28;20303;-87
2023/10/25 00:21:54;;;;;;;1.30;1.20;;;21.80;44.50;;;;;;4968209;28;20648;-86
2023/10/25 00:24:20;;;;;;;1.43;1.10;;;21.80;44.50;;;;;;4983100;28;20246;-86
2023/10/25 00:26:45;;;;;;;1.43;1.33;;;21.80;44.40;;;;;;4974949;28;20691;-86
2023/10/25 00:29:11;;;;;;;1.40;1.30;;;21.80;44.50;;;;;;4972687;28;20627;-87
2023/10/25 00:31:37;;;;;;;1.30;1.20;;;21.80;44.40;;;;;;4971622;28;20594;-85
2023/10/25 00:34:03;;;;;;;1.20;1.10;;;21.80;44.50;;;;;;4970175;28;20235;-87
2023/10/25 00:36:29;;;;;;;1.57;1.17;;;21.80;44.50;;;;;;4949349;28;20235;-86
2023/10/25 00:38:54;;;;;;;1.10;1.00;;;21.80;44.50;;;;;;4967013;28;20466;-88
2023/10/25 00:41:20;;;;;;;1.60;1.50;;;21.80;44.50;;;;;;4967223;28;20462;-87
2023/10/25 00:43:46;;;;;;;1.40;1.20;;;21.80;44.40;;;;;;4984776;28;20727;-84
2023/10/25 00:46:16;;;;;;;1.07;1.00;;;21.80;44.50;;;;;;4970205;28;20670;-86
2023/10/25 00:48:46;;;;;;;1.20;1.10;;;21.80;44.50;;;;;;4972539;28;20226;-88
2023/10/25 00:51:15;;;;;;;1.20;1.10;;;21.80;44.50;;;;;;4957770;28;20471;-85
2023/10/25 00:53:46;;;;;;;1.40;1.30;;;21.80;44.50;;;;;;4970915;28;20456;-85
2023/10/25 00:56:12;;;;;;;1.30;1.20;;;21.80;44.50;;;;;;4972630;28;20497;-85
2023/10/25 00:58:40;;;;;;;1.20;1.10;;;21.80;44.50;;;;;;4968538;28;20458;-86
2023/10/25 01:01:06;;;;;;;1.40;1.30;;;21.80;44.50;;;;;;4972681;28;20461;-87
2023/10/25 01:03:32;;;;;;;2.70;1.30;;;21.80;44.50;;;;;;4973411;28;20481;-86
2023/10/25 01:05:57;;;;;;;1.50;1.40;;;21.80;44.50;;;;;;4977800;28;20671;-85
2023/10/25 01:08:23;;;;;;;1.10;1.00;;;21.80;44.50;;;;;;4970518;28;20228;-85
2023/10/25 01:10:53;;;;;;;1.37;1.27;;;21.80;44.50;;;;;;4971246;28;20228;-87
2023/10/25 01:13:19;;;;;;;1.30;1.20;;;21.80;45.30;;;;;;4976346;28;20226;-85
2023/10/25 01:15:46;;;;;;;1.17;1.07;;;21.80;44.50;;;;;;4973310;28;20544;-85
2023/10/25 01:18:13;;;;;;;1.30;1.20;;;21.80;44.50;;;;;;4963368;28;20481;-85
2023/10/25 01:20:38;;;;;;;1.87;1.30;;;21.80;44.50;;;;;;4954762;28;20462;-85
2023/10/25 01:23:04;;;;;;;1.23;1.13;;;21.70;44.50;;;;;;4951603;28;20650;-86
2023/10/25 01:25:29;;;;;;;1.20;1.10;;;21.70;44.40;;;;;;4972054;28;20308;-85
2023/10/25 01:27:55;;;;;;;1.13;1.03;;;21.70;44.40;;;;;;4974230;28;20944;-86
2023/10/25 01:30:21;;;;;;;1.40;1.30;;;21.70;44.40;;;;;;4974804;28;20626;-85
2023/10/25 01:32:47;;;;;;;1.33;1.23;;;21.70;44.50;;;;;;4961263;28;20980;-85
2023/10/25 01:35:12;;;;;;;3.53;1.30;;;21.70;45.20;;;;;;4971509;28;20239;-85
2023/10/25 01:37:38;;;;;;;1.10;1.00;;;21.70;44.50;;;;;;4950614;28;20680;-84
2023/10/25 01:40:05;;;;;;;1.30;1.20;;;21.70;44.50;;;;;;4972631;28;20247;-88
2023/10/25 01:42:31;;;;;;;1.30;1.20;;;21.70;44.50;;;;;;4950208;28;20228;-84
2023/10/25 01:44:56;;;;;;;1.40;1.30;;;21.70;44.50;;;;;;4971453;28;20476;-84
2023/10/25 01:47:22;;;;;;;1.00;0.90;;;21.70;44.50;;;;;;4971326;28;20224;-84
2023/10/25 01:49:47;;;;;;;1.30;1.20;;;21.70;44.40;;;;;;4968799;28;20234;-86
2023/10/25 01:52:13;;;;;;;1.30;1.17;;;21.70;45.30;;;;;;4968273;28;20219;-86
2023/10/25 01:54:40;;;;;;;1.20;1.10;;;21.70;44.40;;;;;;4968432;28;20239;-85
2023/10/25 01:57:06;;;;;;;1.10;1.00;;;21.70;44.40;;;;;;4958956;28;20231;-85
2023/10/25 01:59:32;;;;;;;1.10;1.00;;;21.70;44.50;;;;;;4963654;28;20547;-86
2023/10/25 02:01:57;;;;;;;1.20;1.10;;;21.70;44.50;;;;;;4965450;28;20569;-87
2023/10/25 02:04:23;;;;;;;1.83;1.50;;;21.70;44.50;;;;;;4958056;28;20217;-85
2023/10/25 02:06:51;;;;;;;1.60;1.50;;;21.70;44.50;;;;;;4964863;28;20259;-85
2023/10/25 02:09:18;;;;;;;1.53;1.20;;;21.70;44.40;;;;;;4972038;28;20229;-85
2023/10/25 02:11:43;;;;;;;1.10;1.00;;;21.70;44.40;;;;;;4973329;28;20528;-84
2023/10/25 02:14:09;;;;;;;1.20;1.10;;;21.70;44.40;;;;;;4972848;28;20442;-85
2023/10/25 02:16:35;;;;;;;1.40;1.30;;;21.70;44.40;;;;;;4972398;28;20240;-85
2023/10/25 02:19:00;;;;;;;1.20;1.10;;;21.70;44.50;;;;;;4972316;28;20254;-86
2023/10/25 02:21:26;;;;;;;1.30;1.20;;;21.70;44.50;;;;;;4973152;28;20302;-84
2023/10/25 02:23:53;;;;;;;2.07;1.20;;;21.70;44.60;;;;;;4984966;28;20583;-85
2023/10/25 02:26:19;;;;;;;1.17;1.07;;;21.70;44.50;;;;;;4972617;28;20243;-85
2023/10/25 02:28:44;;;;;;;1.33;1.23;;;21.70;44.40;;;;;;4977647;28;20465;-86
2023/10/25 02:31:10;;;;;;;1.30;1.10;;;21.70;44.50;;;;;;4971739;28;20464;-88
2023/10/25 02:33:36;;;;;;;1.17;1.00;;;21.70;44.50;;;;;;4948269;28;20408;-87
2023/10/25 02:36:01;;;;;;;1.30;1.20;;;21.70;44.40;;;;;;4972375;28;20691;-85
2023/10/25 02:38:27;;;;;;;1.23;1.13;;;21.70;44.40;;;;;;4973371;28;20861;-84
2023/10/25 02:40:52;;;;;;;1.23;1.13;;;21.70;44.50;;;;;;4975330;28;20224;-86
2023/10/25 02:43:18;;;;;;;1.20;1.10;;;21.70;44.50;;;;;;4974613;28;20220;-85
2023/10/25 02:45:43;;;;;;;1.20;1.10;;;21.70;44.50;;;;;;4971230;28;20338;-86
2023/10/25 02:48:13;;;;;;;1.20;1.10;;;21.70;44.50;;;;;;4969368;28;20232;-86
2023/10/25 02:50:39;;;;;;;1.20;1.10;;;21.70;44.50;;;;;;4969235;28;20649;-86
2023/10/25 02:53:04;;;;;;;1.80;1.40;;;21.70;44.50;;;;;;4965099;28;20478;-85
2023/10/25 02:55:30;;;;;;;1.07;0.97;;;21.70;44.60;;;;;;4970039;28;20481;-86
2023/10/25 02:57:55;;;;;;;1.43;1.10;;;21.70;44.50;;;;;;4973893;28;20232;-85
2023/10/25 03:00:21;;;;;;;1.20;1.10;;;21.70;44.50;;;;;;4957491;28;20224;-86
2023/10/25 03:02:47;;;;;;;1.40;1.30;;;21.70;44.50;;;;;;4975867;28;20716;-86
2023/10/25 03:05:12;;;;;;;1.20;1.10;;;21.70;44.60;;;;;;4972299;28;20220;-86
2023/10/25 03:07:38;;;;;;;1.00;1.00;;;21.70;44.50;;;;;;4948753;28;20231;-85
2023/10/25 03:10:04;;;;;;;1.20;1.10;;;21.70;44.50;;;;;;4988129;28;20280;-85
2023/10/25 03:12:30;;;;;;;1.20;1.10;;;21.70;44.50;;;;;;4975521;28;20227;-86
2023/10/25 03:14:56;;;;;;;1.90;1.10;;;21.70;44.50;;;;;;4972239;28;20475;-86
2023/10/25 03:17:21;;;;;;;1.10;1.00;;;21.70;44.50;;;;;;4974121;28;20259;-86
2023/10/25 03:19:47;;;;;;;1.20;1.10;;;21.70;44.50;;;;;;4973184;28;20229;-86
2023/10/25 03:22:13;;;;;;;1.33;1.10;;;21.70;44.50;;;;;;4958485;28;20239;-84
2023/10/25 03:24:38;;;;;;;0.90;0.90;;;21.70;44.50;;;;;;4976469;28;20232;-85
2023/10/25 03:27:07;;;;;;;1.30;1.20;;;21.70;44.50;;;;;;4977461;28;20228;-84
2023/10/25 03:29:36;;;;;;;1.13;1.03;;;21.70;44.50;;;;;;4978735;28;20251;-86
2023/10/25 03:32:02;;;;;;;1.30;1.20;;;21.70;44.50;;;;;;4981255;28;20524;-85
2023/10/25 03:34:28;;;;;;;1.20;1.10;;;21.70;44.50;;;;;;4979092;28;20488;-85
2023/10/25 03:36:54;;;;;;;1.20;1.10;;;21.70;44.50;;;;;;4976613;28;20981;-86
2023/10/25 03:39:19;;;;;;;1.20;1.10;;;21.70;44.50;;;;;;4962140;28;20244;-85
2023/10/25 03:41:45;;;;;;;1.60;1.20;;;21.70;44.50;;;;;;4980176;28;20240;-84
2023/10/25 03:44:13;;;;;;;1.10;1.10;;;21.70;44.50;;;;;;4980403;28;20242;-85
2023/10/25 03:46:38;;;;;;;1.33;1.23;;;21.70;44.50;;;;;;4979558;28;20232;-83
2023/10/25 03:49:04;;;;;;;1.10;1.00;;;21.70;44.90;;;;;;4956145;28;20509;-82
2023/10/25 03:51:31;;;;;;;1.20;1.10;;;21.70;44.40;;;;;;4971428;28;20247;-83
2023/10/25 03:53:57;;;;;;;1.10;1.00;;;21.70;44.50;;;;;;4955200;28;20982;-84
2023/10/25 03:56:22;;;;;;;1.20;1.10;;;21.70;44.40;;;;;;4960690;28;20497;-84
2023/10/25 03:58:48;;;;;;;1.17;1.00;;;21.70;44.40;;;;;;4981895;28;20458;-83
2023/10/25 04:01:14;;;;;;;1.00;1.00;;;21.70;44.50;;;;;;4991085;28;21203;-83
2023/10/25 04:03:39;;;;;;;1.13;1.03;;;21.70;44.40;;;;;;4962580;28;20307;-83
2023/10/25 04:06:07;;;;;;;0.97;0.97;;;21.70;44.30;;;;;;4984520;28;20683;-84
2023/10/25 04:08:32;;;;;;;1.20;0.90;;;21.70;44.30;;;;;;4982504;28;20312;-83
2023/10/25 04:10:58;;;;;;;1.77;1.03;;;21.70;44.40;;;;;;4963115;28;20493;-83
2023/10/25 04:13:25;;;;;;;1.20;1.10;;;21.70;44.30;;;;;;4976157;28;20248;-84
2023/10/25 04:15:59;;;;;;;1.03;0.93;;;21.70;44.30;;;;;;4979462;28;20239;-86
2023/10/25 04:18:26;;;;;;;1.20;1.10;;;21.70;44.20;;;;;;4979654;28;20462;-86
2023/10/25 04:20:52;;;;;;;1.20;1.10;;;21.70;44.20;;;;;;4979036;28;20498;-84
2023/10/25 04:23:18;;;;;;;1.67;1.10;;;21.70;44.10;;;;;;4969194;28;20500;-84
2023/10/25 04:25:44;;;;;;;1.00;0.90;;;21.70;44.10;;;;;;4966167;28;20494;-86
2023/10/25 04:28:10;;;;;;;1.20;1.10;;;21.70;44.10;;;;;;4980842;28;20979;-85
2023/10/25 04:30:36;;;;;;;2.73;1.00;;;21.70;44.10;;;;;;4981511;28;20234;-89
2023/10/25 04:33:02;;;;;;;1.20;1.10;;;21.70;44.20;;;;;;4976818;28;20259;-85
2023/10/25 04:35:28;;;;;;;2.13;1.20;;;21.70;44.00;;;;;;4982953;28;20236;-85
2023/10/25 04:37:55;;;;;;;1.10;1.00;;;21.70;44.00;;;;;;4966436;28;20474;-85
2023/10/25 04:40:21;;;;;;;1.10;1.00;;;21.70;44.00;;;;;;4979062;28;20504;-88
2023/10/25 04:42:49;;;;;;;1.10;1.00;;;21.70;44.00;;;;;;4979940;28;20541;-86
2023/10/25 04:45:16;;;;;;;1.20;1.10;;;21.70;44.00;;;;;;4958925;28;20950;-83
2023/10/25 04:47:41;;;;;;;1.00;1.00;;;21.80;44.10;;;;;;4969904;28;20470;-86
2023/10/25 04:50:07;;;;;;;1.77;1.20;;;21.70;44.00;;;;;;4971610;28;20477;-86
2023/10/25 04:52:33;;;;;;;1.30;1.10;;;21.70;44.00;;;;;;4991766;28;20302;-85
2023/10/25 04:54:58;;;;;;;1.27;1.17;;;21.70;44.00;;;;;;4982070;28;20232;-85
2023/10/25 04:57:24;;;;;;;1.20;1.10;;;21.70;44.00;;;;;;4976568;28;20749;-85
2023/10/25 04:59:50;;;;;;;1.80;1.40;;;21.70;44.00;;;;;;4975979;28;20581;-88
2023/10/25 05:02:16;;;;;;;1.33;1.10;;;21.80;44.10;;;;;;4978537;28;20227;-87
2023/10/25 05:04:41;;;;;;;1.37;1.20;;;21.70;44.00;;;;;;4977590;28;20462;-86
2023/10/25 05:07:08;;;;;;;1.10;1.00;;;21.80;44.10;;;;;;4963774;28;20219;-86
2023/10/25 05:09:34;;;;;;;1.73;1.10;;;21.80;44.10;;;;;;4977505;28;20216;-87
2023/10/25 05:12:07;;;;;;;1.10;1.00;;;21.70;44.00;;;;;;4979197;28;20536;-86
2023/10/25 05:14:33;;;;;;;3.77;1.10;;;21.70;44.00;;;;;;4983697;28;20714;-86
2023/10/25 05:17:02;;;;;;;1.47;1.37;;;21.80;44.10;;;;;;4978328;28;20497;-86
2023/10/25 05:19:28;;;;;;;1.53;1.00;;;21.70;44.00;;;;;;4959787;28;20466;-87
2023/10/25 05:21:55;;;;;;;1.70;1.07;;;21.70;44.80;;;;;;4964067;28;20480;-90
2023/10/25 05:24:21;;;;;;;1.30;1.10;;;21.70;44.00;;;;;;4973457;28;20254;-87
2023/10/25 05:26:47;;;;;;;1.20;1.10;;;21.70;43.90;;;;;;4979482;28;20476;-86
2023/10/25 05:29:13;;;;;;;1.80;0.93;;;21.80;44.00;;;;;;4979118;28;20890;-86
2023/10/25 05:31:43;;;;;;;1.10;1.00;;;21.70;43.90;;;;;;4973614;28;20228;-89
2023/10/25 05:34:09;;;;;;;1.40;1.20;;;21.70;43.90;;;;;;4956194;28;21632;-87
2023/10/25 05:36:35;;;;;;;1.40;1.30;;;21.70;43.90;;;;;;4949609;28;20480;-87
2023/10/25 05:39:01;;;;;;;1.73;1.40;;;21.70;43.90;;;;;;4957201;28;21099;-87
2023/10/25 05:41:30;;;;;;;1.43;1.20;;;21.70;43.90;;;;;;4956843;28;20481;-87
2023/10/25 05:44:09;;;;;;;1.13;1.03;;;21.70;43.80;;;;;;4952587;28;20220;-86
2023/10/25 05:46:35;;;;;;;1.50;1.00;;;21.70;43.80;;;;;;4953138;28;20490;-88
2023/10/25 05:49:01;;;;;;;1.87;1.20;;;21.70;43.90;;;;;;4954181;28;20493;-88
2023/10/25 05:51:26;;;;;;;1.17;1.07;;;21.70;43.80;;;;;;4951632;28;20220;-87
2023/10/25 05:53:52;;;;;;;4.30;1.00;;;21.70;43.90;;;;;;4950266;28;20763;-87
2023/10/25 05:56:18;;;;;;;1.20;1.10;;;21.70;43.90;;;;;;4959345;28;20255;-86
2023/10/25 05:58:45;;;;;;;1.13;1.03;;;21.70;43.80;;;;;;4959394;28;20221;-87
2023/10/25 06:01:13;;;;;;;1.10;1.00;;;21.70;43.80;;;;;;4954895;28;20459;-86
2023/10/25 06:03:45;;;;;;;1.10;1.00;;;21.70;43.80;;;;;;4960275;28;20507;-86
2023/10/25 06:06:12;;;;;;;1.20;1.10;;;21.70;43.80;;;;;;4955992;28;20470;-86
2023/10/25 06:08:38;;;;;;;1.77;1.20;;;21.80;44.00;;;;;;4956623;28;20469;-86
2023/10/25 06:11:05;;;;;;;2.60;1.17;;;21.80;43.80;;;;;;4949431;28;20540;-86
2023/10/25 06:13:31;;;;;;;1.13;1.03;;;21.70;43.80;;;;;;4947393;28;20459;-87
2023/10/25 06:15:56;;;;;;;1.57;1.30;;;21.80;43.90;;;;;;4951555;28;21001;-87
2023/10/25 06:18:22;;;;;;;1.17;1.07;;;21.80;43.90;;;;;;4953644;28;20217;-87
2023/10/25 06:20:51;;;;;;;2.47;1.20;;;21.70;43.80;;;;;;4952891;28;21004;-88
2023/10/25 06:23:17;;;;;;;1.33;1.00;;;21.70;43.80;;;;;;4955819;28;20502;-87
2023/10/25 06:25:42;;;;;;;1.40;1.30;;;21.70;43.80;;;;;;4947921;28;21275;-86
2023/10/25 06:28:08;;;;;;;1.30;1.20;;;21.70;43.80;;;;;;4947553;28;20626;-86
2023/10/25 06:30:33;;;;;;;1.20;1.10;;;21.70;43.80;;;;;;4952003;28;20216;-87
2023/10/25 06:32:59;;;;;;;1.30;1.20;;;21.70;43.80;;;;;;4957622;28;20236;-88
2023/10/25 06:35:25;;;;;;;1.00;0.90;;;21.70;43.80;;;;;;4953145;28;20263;-85
2023/10/25 06:37:51;;;;;;;1.10;1.00;;;21.70;43.80;;;;;;4969166;28;20232;-87
2023/10/25 06:40:17;;;;;;;1.20;1.10;;;21.70;43.80;;;;;;4967303;28;20220;-88
2023/10/25 06:42:43;;;;;;;1.13;1.03;;;21.70;43.80;;;;;;4968628;28;20533;-88
2023/10/25 06:45:14;;;;;;;1.20;1.10;;;21.70;43.80;;;;;;4972582;28;21372;-88
2023/10/25 06:47:44;;;;;;;1.20;1.10;;;21.70;43.80;;;;;;4971633;28;20454;-88
2023/10/25 06:50:14;;;;;;;1.23;1.13;;;21.70;43.80;;;;;;4972687;28;20481;-86
2023/10/25 06:52:40;;;;;;;3.53;1.20;;;21.70;43.80;;;;;;4971073;28;21024;-87
2023/10/25 06:55:07;;;;;;;1.80;1.17;;;21.70;43.80;;;;;;4971009;28;20470;-88
2023/10/25 06:57:32;;;;;;;1.50;1.20;;;21.70;43.90;;;;;;4974001;28;20509;-86
2023/10/25 07:00:00;;;;;;;1.10;1.00;;;21.70;43.80;;;;;;4942139;28;20469;-85
2023/10/25 07:02:46;;;;;;;1.23;1.13;;;21.70;43.80;;;;;;4985420;28;20231;-87
2023/10/25 07:05:13;;;;;;;1.40;1.10;;;21.70;43.80;;;;;;4974591;28;20472;-87
2023/10/25 07:07:40;;;;;;;1.50;1.40;;;21.70;43.80;;;;;;4973087;28;20462;-89
2023/10/25 07:10:08;;;;;;;1.17;1.07;;;21.70;43.80;;;;;;4988907;28;20540;-87
2023/10/25 07:12:34;;;;;;;1.20;1.10;;;21.70;43.80;;;;;;4956596;28;20834;-87
2023/10/25 07:14:59;;;;;;;1.30;1.20;;;21.80;43.90;;;;;;4971968;28;21023;-88
2023/10/25 07:17:27;;;;;;;1.37;1.10;;;21.80;43.80;;;;;;4975697;28;20227;-89
2023/10/25 07:19:53;;;;;;;1.10;1.00;;;21.70;43.80;;;;;;4974655;28;20233;-87
2023/10/25 07:22:19;;;;;;;1.60;1.50;;;21.70;43.80;;;;;;4974588;28;20466;-87
2023/10/25 07:24:45;;;;;;;1.27;1.10;;;21.70;43.80;;;;;;4972585;28;20520;-89
2023/10/25 07:27:10;;;;;;;1.20;1.10;;;21.70;43.80;;;;;;4970818;28;20753;-87
2023/10/25 07:29:36;;;;;;;1.07;0.97;;;21.70;43.80;;;;;;4974980;28;20228;-86
2023/10/25 07:32:03;;;;;;;1.73;1.20;;;21.70;43.70;;;;;;4975196;28;20224;-87
2023/10/25 07:34:29;;;;;;;1.10;0.97;;;21.70;43.80;;;;;;4972172;28;20684;-86
2023/10/25 07:36:55;;;;;;;1.20;1.10;;;21.70;43.80;;;;;;4967684;28;20590;-88
2023/10/25 07:39:21;;;;;;;1.20;1.10;;;21.70;43.80;;;;;;4970113;28;20226;-88
2023/10/25 07:41:46;;;;;;;1.20;1.00;;;21.70;43.80;;;;;;4970078;28;20474;-87
2023/10/25 07:44:12;;;;;;;1.17;1.07;;;21.70;43.80;;;;;;4975124;28;20834;-87
2023/10/25 07:46:38;;;;;;;1.90;1.10;;;21.70;43.80;;;;;;4975031;28;20334;-88
2023/10/25 07:49:03;;;;;;;1.77;1.00;;;21.70;44.60;;;;;;4986080;28;20227;-87
2023/10/25 07:51:29;;;;;;;1.37;1.07;;;21.70;43.80;;;;;;4971567;28;20224;-85
2023/10/25 07:53:55;;;;;;;1.00;0.90;;;21.70;43.80;;;;;;4985501;28;20855;-87
2023/10/25 07:56:20;;;;;;;1.10;1.00;;;21.70;43.80;;;;;;4973618;28;20303;-87
2023/10/25 07:58:46;;;;;;;1.30;1.20;;;21.70;43.80;;;;;;4974792;28;20260;-88
2023/10/25 08:01:12;;;;;;;1.20;1.10;;;21.70;43.70;;;;;;4973933;28;20228;-87
2023/10/25 08:03:41;;;;;;;1.20;1.10;;;21.70;43.70;;;;;;4973066;28;20224;-86
2023/10/25 08:06:07;;;;;;;1.50;1.00;;;21.70;43.80;;;;;;4967940;28;20484;-88
2023/10/25 08:08:33;;;;;;;1.00;1.00;;;21.70;43.90;;;;;;4984698;28;20505;-88
2023/10/25 08:11:00;;;;;;;1.53;1.20;;;21.70;43.80;;;;;;4970627;28;20291;-86
2023/10/25 08:13:25;;;;;;;1.30;1.20;;;21.70;43.80;;;;;;4971108;28;20220;-89
2023/10/25 08:15:59;;;;;;;1.00;1.00;;;21.70;43.80;;;;;;4971288;28;20491;-88
2023/10/25 08:18:30;;;;;;;1.57;1.10;;;21.70;43.80;;;;;;4983674;28;20235;-85
2023/10/25 08:20:56;;;;;;;1.03;0.93;;;21.70;43.80;;;;;;4972186;28;20481;-86
2023/10/25 08:23:22;;;;;;;1.30;1.20;;;21.70;43.70;;;;;;4971151;28;20462;-86
2023/10/25 08:25:48;;;;;;;1.10;1.00;;;21.70;43.80;;;;;;4952012;28;20473;-85
2023/10/25 08:28:14;;;;;;;1.30;0.93;;;21.70;43.80;;;;;;4976009;28;20834;-90
2023/10/25 08:30:40;;;;;;;2.03;0.90;;;21.70;43.70;;;;;;4968188;28;20228;-87
2023/10/25 08:33:06;;;;;;;0.90;0.90;;;21.70;43.80;;;;;;4952633;28;20762;-85
2023/10/25 08:35:31;;;;;;;2.00;1.10;;;21.70;43.70;;;;;;4971303;28;20240;-86
2023/10/25 08:37:57;;;;;;;1.10;1.00;;;21.70;43.80;;;;;;4972097;28;20216;-87
2023/10/25 08:40:26;;;;;;;0.90;0.90;;;21.70;43.70;;;;;;4958844;28;20742;-89
2023/10/25 08:42:52;;;;;;;1.23;1.13;;;21.70;43.80;;;;;;4970521;28;20320;-87
2023/10/25 08:45:19;;;;;;;1.10;1.00;;;21.70;43.70;;;;;;4974824;28;20984;-86
2023/10/25 08:47:45;;;;;;;1.10;1.00;;;21.70;43.70;;;;;;4968534;28;21046;-89
2023/10/25 08:50:13;;;;;;;1.00;0.90;;;21.70;43.70;;;;;;4954648;28;20457;-87
2023/10/25 08:52:44;;;;;;;0.97;0.97;;;21.70;43.80;;;;;;4971886;28;20244;-86
2023/10/25 08:55:10;;;;;;;0.90;0.90;;;21.70;43.80;;;;;;4955558;28;20556;-86
2023/10/25 08:57:38;;;;;;;1.10;1.00;;;21.70;43.80;;;;;;4970521;28;20470;-87
2023/10/25 09:00:07;;;;;;;0.93;0.83;;;21.70;43.80;;;;;;4955285;28;20981;-89
2023/10/25 09:02:37;;;;;;;1.73;1.00;;;21.70;43.80;;;;;;4970445;28;20495;-84
2023/10/25 09:05:03;;;;;;;0.90;0.90;;;21.70;43.80;;;;;;4973058;28;20498;-88
2023/10/25 09:07:31;;;;;;;1.00;0.90;;;21.70;43.70;;;;;;4971018;28;20496;-87
2023/10/25 09:09:57;;;;;;;1.37;1.03;;;21.70;43.80;;;;;;4960164;28;20553;-85
2023/10/25 09:12:23;;;;;;;0.80;0.80;;;21.70;43.70;;;;;;4956883;28;20467;-85
2023/10/25 09:14:49;;;;;;;1.00;0.90;;;21.70;43.80;;;;;;4969842;28;20248;-86
2023/10/25 09:17:15;;;;;;;1.10;1.00;;;21.70;43.70;;;;;;4970068;28;20458;-88
2023/10/25 09:19:50;;;;;;;1.07;0.97;;;21.70;43.70;;;;;;4971729;28;20224;-87
2023/10/25 09:22:25;;;;;;;1.00;0.90;;;21.70;43.70;;;;;;4970018;28;20239;-87
2023/10/25 09:24:52;;;;;;;1.07;0.97;;;21.70;43.70;;;;;;4969228;28;20473;-89
2023/10/25 09:27:19;;;;;;;1.00;0.90;;;21.70;43.70;;;;;;4970950;28;20499;-88
2023/10/25 09:29:45;;;;;;;1.00;0.90;;;21.70;43.80;;;;;;4949902;28;20481;-87
2023/10/25 09:32:11;;;;;;;2.80;1.10;;;21.70;43.70;;;;;;4954359;28;21016;-88
2023/10/25 09:34:36;;;;;;;1.10;1.00;;;21.70;43.70;;;;;;4970080;28;20533;-89
2023/10/25 09:37:04;;;;;;;1.23;1.13;;;21.70;43.70;;;;;;4954494;28;20244;-89
2023/10/25 09:39:32;;;;;;;0.80;0.80;;;21.70;43.70;;;;;;4946493;28;20232;-88
2023/10/25 09:42:01;;;;;;;1.00;0.90;;;21.70;43.80;;;;;;4954279;28;20469;-87
2023/10/25 09:44:31;;;;;;;1.17;1.00;;;21.70;43.90;;;;;;4982992;28;20469;-87
2023/10/25 09:46:58;;;;;;;1.30;1.20;;;21.70;43.70;;;;;;4958825;28;21132;-88
2023/10/25 09:49:31;;;;;;;1.00;1.00;;;21.70;43.70;;;;;;4968721;28;20586;-88
2023/10/25 09:52:05;;;;;;;1.50;0.93;;;21.70;43.70;;;;;;4969434;28;20462;-88
2023/10/25 09:54:35;;;;;;;1.00;0.90;;;21.70;43.70;;;;;;4971937;28;20458;-87
2023/10/25 09:57:04;;;;;;;1.20;1.10;;;21.70;43.70;;;;;;4970150;28;20489;-86
2023/10/25 09:59:33;;;;;;;1.10;0.80;;;21.70;43.70;;;;;;4973080;28;20470;-87
2023/10/25 10:02:01;;;;;;;0.90;0.90;;;21.70;43.70;;;;;;4944747;28;20639;-86
2023/10/25 10:04:30;;;;;;;1.10;1.00;;;21.70;43.70;;;;;;4965919;28;21235;-87
2023/10/25 10:07:02;;;;;;;1.23;0.97;;;21.70;43.70;;;;;;4952825;28;21986;-86
2023/10/25 10:10:14;;;;;;;0.93;0.93;;;21.70;43.70;;;;;;4970507;28;20481;-88
2023/10/25 10:12:40;;;;;;;1.57;0.90;;;21.70;43.70;;;;;;4967341;28;20461;-89
2023/10/25 10:15:06;;;;;;;1.00;1.00;;;21.70;43.80;;;;;;4969567;28;20513;-86
2023/10/25 10:17:36;;;;;;;1.00;0.90;;;21.70;43.70;;;;;;4971820;28;20234;-86
2023/10/25 10:20:05;;;;;;;0.80;0.80;;;21.70;43.80;;;;;;4970229;28;21456;-86
2023/10/25 10:22:30;;;;;;;1.07;0.93;;;21.70;43.70;;;;;;4970821;28;20451;-87
2023/10/25 10:25:04;;;;;;;1.20;1.10;;;21.70;43.70;;;;;;4969077;28;20458;-86
2023/10/25 10:27:42;;;;;;;0.97;0.87;;;21.70;43.80;;;;;;4946249;28;21298;-86
2023/10/25 10:30:30;;;;;;;1.20;1.10;;;21.70;43.70;;;;;;4966229;28;20485;-88
2023/10/25 10:32:56;;;;;;;0.80;0.80;;;21.70;43.70;;;;;;4944754;28;20515;-87
2023/10/25 10:35:22;;;;;;;0.90;0.90;;;21.70;43.70;;;;;;4984069;28;20565;-86
2023/10/25 10:37:57;;;;;;;1.00;0.80;;;21.70;43.70;;;;;;4971143;28;21357;-86
2023/10/25 10:40:23;;;;;;;1.00;0.80;;;21.70;43.80;;;;;;4966973;28;20227;-89
2023/10/25 10:42:49;;;;;;;1.10;1.00;;;21.70;43.80;;;;;;4973746;28;20458;-89
2023/10/25 10:45:16;;;;;;;0.77;0.77;;;21.70;43.90;;;;;;4960391;28;20239;-86
2023/10/25 10:48:16;;;;;;;0.80;0.80;;;21.70;43.70;;;;;;4968770;28;20258;-86
2023/10/25 10:50:41;;;;;;;0.80;0.80;;;21.70;43.70;;;;;;4966590;28;20469;-86
2023/10/25 10:53:07;;;;;;;0.97;0.87;;;21.70;43.80;;;;;;4967820;28;20461;-86
2023/10/25 10:55:33;;;;;;;0.80;0.80;;;21.70;43.80;;;;;;4964789;28;20236;-86
2023/10/25 10:57:58;;;;;;;0.90;0.90;;;21.70;44.60;;;;;;4966440;28;20223;-88
2023/10/25 11:00:27;;;;;;;1.10;1.00;;;21.70;43.80;;;;;;4963359;28;20220;-89
2023/10/25 11:02:53;;;;;;;1.00;0.90;;;21.70;43.80;;;;;;4964347;28;20224;-90
2023/10/25 11:05:25;;;;;;;0.90;0.90;;;21.70;43.80;;;;;;4949318;28;20470;-90
2023/10/25 11:07:51;;;;;;;0.90;0.80;;;21.70;43.80;;;;;;4962847;28;20252;-86
2023/10/25 11:10:17;;;;;;;1.10;1.00;;;21.70;43.80;;;;;;4969549;28;21020;-90
2023/10/25 11:12:43;;;;;;;1.10;0.87;;;21.70;43.80;;;;;;4981444;28;20461;-90
2023/10/25 11:15:10;;;;;;;0.80;0.80;;;21.70;43.80;;;;;;4950909;28;20244;-85
2023/10/25 11:17:37;;;;;;;0.83;0.80;;;21.70;43.80;;;;;;4964343;28;20885;-88
2023/10/25 11:20:04;;;;;;;1.20;1.10;;;21.70;43.80;;;;;;4951730;28;20573;-88
2023/10/25 11:22:31;;;;;;;0.80;0.80;;;21.70;44.60;;;;;;4966408;28;20461;-88
2023/10/25 11:24:57;;;;;;;0.80;0.80;;;21.70;43.80;;;;;;4968561;28;20459;-87
2023/10/25 11:27:31;;;;;;;0.80;0.80;;;21.70;43.80;;;;;;4968031;28;20948;-87
2023/10/25 11:29:57;;;;;;;0.87;0.83;;;21.70;43.90;;;;;;4982159;28;20470;-88
2023/10/25 11:32:23;;;;;;;0.90;0.90;;;21.70;43.80;;;;;;4968103;28;20458;-88
2023/10/25 11:34:52;;;;;;;1.20;1.00;;;21.70;43.80;;;;;;4965713;28;20563;-88
2023/10/25 11:37:19;;;;;;;0.97;0.90;;;21.70;43.90;;;;;;4950511;28;20574;-89
2023/10/25 11:40:01;;;;;;;1.10;1.00;;;21.70;43.80;;;;;;4955914;28;20564;-87
2023/10/25 11:42:32;;;;;;;0.90;0.80;;;21.70;43.80;;;;;;4948609;28;20493;-88
2023/10/25 11:45:01;;;;;;;1.37;0.83;;;21.70;43.80;;;;;;4955648;28;20469;-86
2023/10/25 11:47:27;;;;;;;1.00;0.90;;;21.70;43.80;;;;;;4953421;28;21083;-87
2023/10/25 11:49:56;;;;;;;0.70;0.67;;;21.70;43.80;;;;;;4950396;28;20639;-87
2023/10/25 11:52:26;;;;;;;0.80;0.70;;;21.70;43.80;;;;;;4971417;28;20497;-87
2023/10/25 11:54:56;;;;;;;0.90;0.90;;;21.70;43.80;;;;;;4971468;28;20477;-86
2023/10/25 11:57:32;;;;;;;1.13;1.03;;;21.70;43.80;;;;;;4971359;28;20519;-87
2023/10/25 11:59:58;;;;;;;1.00;0.90;;;21.70;43.80;;;;;;4954297;28;20485;-89
2023/10/25 12:02:25;;;;;;;0.90;0.90;;;21.70;43.80;;;;;;4953702;28;20980;-84
2023/10/25 12:04:52;;;;;;;0.90;0.90;;;21.60;43.70;;;;;;4969165;28;20472;-87
2023/10/25 12:07:21;;;;;;;0.80;0.80;;;21.70;43.70;;;;;;4960350;28;20973;-87
2023/10/25 12:09:47;;;;;;;0.80;0.80;;;21.70;43.80;;;;;;4961921;28;20458;-88
2023/10/25 12:12:12;;;;;;;1.30;1.20;;;21.70;43.80;;;;;;4947692;28;20573;-87
2023/10/25 12:14:38;;;;;;;0.87;0.87;;;21.70;43.80;;;;;;4968554;28;20470;-88
2023/10/25 12:17:06;;;;;;;1.10;1.00;;;21.70;43.70;;;;;;4949426;28;20236;-87
2023/10/25 12:19:32;;;;;;;0.90;0.80;;;21.70;43.80;;;;;;4970117;28;20224;-89
2023/10/25 12:21:58;;;;;;;1.10;1.00;;;21.70;43.80;;;;;;4959446;28;20466;-87
2023/10/25 12:24:26;;;;;;;1.10;1.00;;;21.70;44.60;;;;;;4952649;28;20457;-88
2023/10/25 12:26:53;;;;;;;1.07;0.97;;;21.70;43.70;;;;;;4950629;28;20678;-90
2023/10/25 12:29:19;;;;;;;0.90;0.90;;;21.70;43.70;;;;;;4957248;28;20472;-88
2023/10/25 12:31:45;;;;;;;1.07;0.97;;;21.70;43.80;;;;;;4970585;28;20462;-89
2023/10/25 12:34:12;;;;;;;1.10;1.00;;;21.70;43.70;;;;;;4970415;28;20545;-87
2023/10/25 12:36:37;;;;;;;0.90;0.80;;;21.70;43.80;;;;;;4952795;28;20470;-87
2023/10/25 12:39:03;;;;;;;0.90;0.90;;;21.70;43.80;;;;;;4951668;28;21004;-87
2023/10/25 12:41:29;;;;;;;0.80;0.80;;;21.70;44.00;;;;;;4960126;28;20231;-87
2023/10/25 12:43:55;;;;;;;0.90;0.80;;;21.70;43.70;;;;;;4979968;28;20224;-89
2023/10/25 12:46:21;;;;;;;0.93;0.93;;;21.70;43.80;;;;;;4968927;28;20217;-88
2023/10/25 12:48:47;;;;;;;1.23;1.13;;;21.70;43.70;;;;;;4969389;28;20466;-85